createdAt,value
2022-08-09T00:00:02.000Z,38.86
2022-08-09T00:01:01.000Z,39.17
2022-08-09T00:02:01.000Z,38.76
2022-08-09T00:03:01.000Z,39.53
2022-08-09T00:04:01.000Z,39.57
2022-08-09T00:05:02.000Z,39.13
2022-08-09T00:05:02.000Z,39.13
2022-08-09T00:06:24.000Z,39.05
2022-08-09T00:07:03.000Z,39.19
2022-08-09T00:08:01.000Z,39.34
2022-08-09T00:09:01.000Z,39.45
2022-08-09T00:10:02.000Z,39.34
2022-08-09T00:11:01.000Z,39.42
2022-08-09T00:12:01.000Z,39.19
2022-08-09T00:13:01.000Z,39.48
2022-08-09T00:14:01.000Z,39.16
2022-08-09T00:15:01.000Z,39.47
2022-08-09T00:16:01.000Z,39.09
2022-08-09T00:17:02.000Z,39.59
2022-08-09T00:18:01.000Z,39.52
2022-08-09T00:19:02.000Z,39.58
2022-08-09T00:20:01.000Z,39.36
2022-08-09T00:21:04.000Z,39.43
2022-08-09T00:22:02.000Z,39.71
2022-08-09T00:23:01.000Z,39.73
2022-08-09T00:23:01.000Z,39.73
2022-08-09T00:24:01.000Z,39.63
2022-08-09T00:25:01.000Z,39.76
2022-08-09T00:26:01.000Z,39.15
2022-08-09T00:27:01.000Z,39.72
2022-08-09T00:28:02.000Z,39.65
2022-08-09T00:29:01.000Z,39.54
2022-08-09T00:30:01.000Z,39.89
2022-08-09T00:31:01.000Z,39.32
2022-08-09T00:32:01.000Z,39.63
2022-08-09T00:33:01.000Z,39.48
2022-08-09T00:34:01.000Z,39.23
2022-08-09T00:35:02.000Z,39.72
2022-08-09T00:36:02.000Z,39.61
2022-08-09T00:37:00.000Z,39.72
2022-08-09T00:38:01.000Z,39.91
2022-08-09T00:39:00.000Z,39.96
2022-08-09T00:40:01.000Z,40.00
2022-08-09T00:41:01.000Z,39.93
2022-08-09T00:42:00.000Z,39.80
2022-08-09T00:42:00.000Z,39.80
2022-08-09T00:42:00.000Z,39.80
2022-08-09T00:42:00.000Z,39.80
2022-08-09T00:43:32.000Z,40.04
2022-08-09T00:44:28.000Z,40.05
2022-08-09T00:45:03.000Z,39.85
2022-08-09T00:46:01.000Z,39.75
2022-08-09T00:47:01.000Z,39.98
2022-08-09T00:48:03.000Z,40.08
2022-08-09T00:49:01.000Z,40.03
2022-08-09T00:50:02.000Z,39.93
2022-08-09T00:51:03.000Z,39.71
2022-08-09T00:52:01.000Z,39.68
2022-08-09T00:53:01.000Z,39.56
2022-08-09T00:54:02.000Z,39.82
2022-08-09T00:55:01.000Z,39.48
2022-08-09T00:56:03.000Z,39.30
2022-08-09T00:57:00.000Z,39.89
2022-08-09T00:58:01.000Z,39.65
2022-08-09T00:59:01.000Z,39.62
2022-08-09T01:00:05.000Z,39.48
2022-08-09T01:01:09.000Z,39.32
2022-08-09T01:02:00.000Z,39.31
2022-08-09T01:03:10.000Z,39.38
2022-08-09T01:04:10.000Z,39.53
2022-08-09T01:05:23.000Z,39.72
2022-08-09T01:06:08.000Z,40.03
2022-08-09T01:07:12.000Z,39.46
2022-08-09T01:08:09.000Z,39.81
2022-08-09T01:09:12.000Z,40.02
2022-08-09T01:10:12.000Z,39.92
2022-08-09T01:11:23.000Z,39.96
2022-08-09T01:12:15.000Z,39.93
2022-08-09T01:13:11.000Z,39.90
2022-08-09T01:14:34.000Z,40.12
2022-08-09T01:15:06.000Z,39.71
2022-08-09T01:16:03.000Z,39.85
2022-08-09T01:17:07.000Z,40.47
2022-08-09T01:18:05.000Z,40.25
2022-08-09T01:19:12.000Z,40.34
2022-08-09T01:20:20.000Z,41.05
2022-08-09T01:21:23.000Z,40.84
2022-08-09T01:22:10.000Z,41.21
2022-08-09T01:23:10.000Z,41.72
2022-08-09T01:23:10.000Z,41.72
2022-08-09T01:24:14.000Z,41.65
2022-08-09T01:25:21.000Z,41.82
2022-08-09T01:26:23.000Z,41.90
2022-08-09T01:27:18.000Z,41.66
2022-08-09T01:28:03.000Z,41.88
2022-08-09T01:29:02.000Z,41.74
2022-08-09T01:30:05.000Z,41.95
2022-08-09T01:31:03.000Z,41.93
2022-08-09T01:32:04.000Z,41.79
2022-08-09T01:33:04.000Z,42.00
2022-08-09T01:34:03.000Z,42.71
2022-08-09T01:35:06.000Z,42.45
2022-08-09T01:36:07.000Z,42.39
2022-08-09T01:37:03.000Z,42.34
2022-08-09T01:38:07.000Z,42.26
2022-08-09T01:39:01.000Z,42.43
2022-08-09T01:40:05.000Z,42.13
2022-08-09T01:41:14.000Z,42.23
2022-08-09T01:42:03.000Z,42.44
2022-08-09T01:43:03.000Z,42.16
2022-08-09T01:44:04.000Z,41.52
2022-08-09T01:45:01.000Z,41.86
2022-08-09T01:46:02.000Z,41.46
2022-08-09T01:47:02.000Z,42.43
2022-08-09T01:48:01.000Z,42.15
2022-08-09T01:49:05.000Z,42.50
2022-08-09T01:50:03.000Z,42.78
2022-08-09T01:51:01.000Z,43.21
2022-08-09T01:52:07.000Z,42.77
2022-08-09T01:53:04.000Z,42.69
2022-08-09T01:54:03.000Z,43.59
2022-08-09T01:55:02.000Z,43.08
2022-08-09T01:56:02.000Z,43.75
2022-08-09T01:57:09.000Z,44.08
2022-08-09T01:58:04.000Z,44.17
2022-08-09T01:59:06.000Z,44.54
2022-08-09T02:00:06.000Z,43.98
2022-08-09T02:01:02.000Z,43.46
2022-08-09T02:02:01.000Z,43.35
2022-08-09T02:03:03.000Z,44.49
2022-08-09T02:04:03.000Z,45.73
2022-08-09T02:05:08.000Z,45.71
2022-08-09T02:06:03.000Z,45.25
2022-08-09T02:07:09.000Z,45.74
2022-08-09T02:07:09.000Z,45.74
2022-08-09T02:07:09.000Z,45.74
2022-08-09T02:08:34.000Z,45.19
2022-08-09T02:09:01.000Z,46.45
2022-08-09T02:10:06.000Z,45.82
2022-08-09T02:11:02.000Z,45.10
2022-08-09T02:12:03.000Z,45.88
2022-08-09T02:13:03.000Z,45.75
2022-08-09T02:14:06.000Z,45.18
2022-08-09T02:15:03.000Z,45.32
2022-08-09T02:16:02.000Z,44.66
2022-08-09T02:17:01.000Z,44.44
2022-08-09T02:17:01.000Z,44.44
2022-08-09T02:18:10.000Z,45.68
2022-08-09T02:19:01.000Z,45.37
2022-08-09T02:20:01.000Z,45.88
2022-08-09T02:21:13.000Z,46.07
2022-08-09T02:22:08.000Z,46.21
2022-08-09T02:23:10.000Z,45.45
2022-08-09T02:24:07.000Z,45.84
2022-08-09T02:25:04.000Z,45.85
2022-08-09T02:26:02.000Z,46.01
2022-08-09T02:27:05.000Z,46.36
2022-08-09T02:28:08.000Z,46.00
2022-08-09T02:29:08.000Z,46.25
2022-08-09T02:30:01.000Z,46.39
2022-08-09T02:31:08.000Z,46.59
2022-08-09T02:32:02.000Z,46.82
2022-08-09T02:33:01.000Z,45.77
2022-08-09T02:34:09.000Z,46.12
2022-08-09T02:35:04.000Z,46.84
2022-08-09T02:36:03.000Z,46.88
2022-08-09T02:37:05.000Z,46.59
2022-08-09T02:38:02.000Z,46.95
2022-08-09T02:39:04.000Z,47.13
2022-08-09T02:40:05.000Z,46.72
2022-08-09T02:41:07.000Z,46.12
2022-08-09T02:42:06.000Z,46.09
2022-08-09T02:43:02.000Z,46.43
2022-08-09T02:44:04.000Z,46.14
2022-08-09T02:45:04.000Z,45.89
2022-08-09T02:46:05.000Z,45.95
2022-08-09T02:47:04.000Z,45.93
2022-08-09T02:48:06.000Z,46.43
2022-08-09T02:49:07.000Z,46.74
2022-08-09T02:50:05.000Z,46.39
2022-08-09T02:51:02.000Z,45.71
2022-08-09T02:52:02.000Z,46.26
2022-08-09T02:53:07.000Z,46.85
2022-08-09T02:54:02.000Z,46.60
2022-08-09T02:55:02.000Z,47.20
2022-08-09T02:56:04.000Z,47.23
2022-08-09T02:57:02.000Z,47.41
2022-08-09T02:58:01.000Z,47.25
2022-08-09T02:59:03.000Z,47.43
2022-08-09T03:00:02.000Z,47.12
2022-08-09T03:01:02.000Z,46.94
2022-08-09T03:02:03.000Z,47.21
2022-08-09T03:03:04.000Z,47.54
2022-08-09T03:04:02.000Z,47.73
2022-08-09T03:05:02.000Z,47.47
2022-08-09T03:06:03.000Z,46.91
2022-08-09T03:07:04.000Z,47.07
2022-08-09T03:08:03.000Z,47.72
2022-08-09T03:09:02.000Z,48.06
2022-08-09T03:10:02.000Z,47.45
2022-08-09T03:11:01.000Z,47.45
2022-08-09T03:12:01.000Z,46.87
2022-08-09T03:13:03.000Z,46.93
2022-08-09T03:14:01.000Z,48.27
2022-08-09T03:15:03.000Z,48.57
2022-08-09T03:16:02.000Z,48.70
2022-08-09T03:17:01.000Z,48.45
2022-08-09T03:18:01.000Z,48.93
2022-08-09T03:19:01.000Z,48.26
2022-08-09T03:20:03.000Z,48.17
2022-08-09T03:21:03.000Z,48.43
2022-08-09T03:22:01.000Z,48.74
2022-08-09T03:23:01.000Z,48.72
2022-08-09T03:24:01.000Z,48.02
2022-08-09T03:25:01.000Z,47.80
2022-08-09T03:26:01.000Z,47.68
2022-08-09T03:27:03.000Z,48.07
2022-08-09T03:28:03.000Z,47.66
2022-08-09T03:29:01.000Z,47.55
2022-08-09T03:30:03.000Z,47.75
2022-08-09T03:31:01.000Z,48.22
2022-08-09T03:32:02.000Z,48.53
2022-08-09T03:33:05.000Z,48.29
2022-08-09T03:34:03.000Z,47.68
2022-08-09T03:35:01.000Z,47.36
2022-08-09T03:36:02.000Z,48.33
2022-08-09T03:37:00.000Z,48.66
2022-08-09T03:37:00.000Z,48.66
2022-08-09T03:38:01.000Z,48.32
2022-08-09T03:39:01.000Z,48.18
2022-08-09T03:40:01.000Z,48.39
2022-08-09T03:41:00.000Z,48.51
2022-08-09T03:42:00.000Z,48.62
2022-08-09T03:43:00.000Z,48.53
2022-08-09T03:44:00.000Z,48.46
2022-08-09T03:45:00.000Z,47.77
2022-08-09T03:46:00.000Z,48.57
2022-08-09T03:47:00.000Z,48.10
2022-08-09T03:48:01.000Z,49.05
2022-08-09T03:49:02.000Z,49.06
2022-08-09T03:50:04.000Z,49.01
2022-08-09T03:51:02.000Z,48.44
2022-08-09T03:52:01.000Z,48.00
2022-08-09T03:53:03.000Z,48.43
2022-08-09T03:54:01.000Z,48.70
2022-08-09T03:55:03.000Z,48.40
2022-08-09T03:56:01.000Z,48.13
2022-08-09T03:57:04.000Z,48.11
2022-08-09T03:58:01.000Z,49.06
2022-08-09T03:59:00.000Z,48.74
2022-08-09T04:00:02.000Z,48.86
2022-08-09T04:01:01.000Z,48.31
2022-08-09T04:02:03.000Z,48.05
2022-08-09T04:03:02.000Z,47.97
2022-08-09T04:04:02.000Z,48.34
2022-08-09T04:05:02.000Z,48.55
2022-08-09T04:06:01.000Z,48.83
2022-08-09T04:07:01.000Z,48.88
2022-08-09T04:08:01.000Z,48.94
2022-08-09T04:09:02.000Z,49.13
2022-08-09T04:10:01.000Z,49.22
2022-08-09T04:11:01.000Z,48.83
2022-08-09T04:12:24.000Z,48.73
2022-08-09T04:13:08.000Z,48.86
2022-08-09T04:14:01.000Z,49.22
2022-08-09T04:14:01.000Z,49.22
2022-08-09T04:15:03.000Z,49.47
2022-08-09T04:16:01.000Z,49.52
2022-08-09T04:17:01.000Z,49.33
2022-08-09T04:18:02.000Z,49.00
2022-08-09T04:19:01.000Z,49.14
2022-08-09T04:20:01.000Z,49.04
2022-08-09T04:21:01.000Z,49.24
2022-08-09T04:22:01.000Z,49.17
2022-08-09T04:23:01.000Z,49.43
2022-08-09T04:24:01.000Z,49.45
2022-08-09T04:25:02.000Z,49.40
2022-08-09T04:26:01.000Z,49.35
2022-08-09T04:27:01.000Z,49.26
2022-08-09T04:28:01.000Z,48.83
2022-08-09T04:29:01.000Z,48.93
2022-08-09T04:30:01.000Z,49.16
2022-08-09T04:31:01.000Z,48.76
2022-08-09T04:32:01.000Z,49.30
2022-08-09T04:33:01.000Z,48.91
2022-08-09T04:34:01.000Z,49.24
2022-08-09T04:35:01.000Z,48.71
2022-08-09T04:36:00.000Z,49.21
2022-08-09T04:37:01.000Z,49.45
2022-08-09T04:38:00.000Z,48.93
2022-08-09T04:39:04.000Z,48.62
2022-08-09T04:40:01.000Z,49.20
2022-08-09T04:41:00.000Z,49.64
2022-08-09T04:42:01.000Z,49.43
2022-08-09T04:43:00.000Z,49.25
2022-08-09T04:44:02.000Z,49.79
2022-08-09T04:45:01.000Z,49.21
2022-08-09T04:46:01.000Z,49.21
2022-08-09T04:47:00.000Z,49.49
2022-08-09T04:48:00.000Z,49.03
2022-08-09T04:49:00.000Z,49.23
2022-08-09T04:50:01.000Z,48.98
2022-08-09T04:51:01.000Z,49.50
2022-08-09T04:52:02.000Z,49.79
2022-08-09T04:53:01.000Z,49.54
2022-08-09T04:54:01.000Z,48.95
2022-08-09T04:55:01.000Z,49.81
2022-08-09T04:56:01.000Z,49.62
2022-08-09T04:57:00.000Z,49.67
2022-08-09T04:58:00.000Z,49.69
2022-08-09T04:59:01.000Z,49.71
2022-08-09T05:00:04.000Z,49.76
2022-08-09T05:01:01.000Z,49.84
2022-08-09T05:02:01.000Z,50.26
2022-08-09T05:03:02.000Z,49.61
2022-08-09T05:04:00.000Z,49.75
2022-08-09T05:05:00.000Z,49.21
2022-08-09T05:06:00.000Z,49.64
2022-08-09T05:07:00.000Z,49.27
2022-08-09T05:08:00.000Z,49.97
2022-08-09T05:09:00.000Z,49.93
2022-08-09T05:10:00.000Z,50.10
2022-08-09T05:11:01.000Z,50.12
2022-08-09T05:12:00.000Z,49.77
2022-08-09T05:13:00.000Z,49.23
2022-08-09T05:14:01.000Z,49.35
2022-08-09T05:15:00.000Z,52.02
2022-08-09T05:16:00.000Z,50.96
2022-08-09T05:17:00.000Z,50.72
2022-08-09T05:18:00.000Z,50.35
2022-08-09T05:18:00.000Z,50.35
2022-08-09T05:19:00.000Z,52.06
2022-08-09T05:20:00.000Z,50.56
2022-08-09T05:21:01.000Z,50.35
2022-08-09T05:22:00.000Z,49.71
2022-08-09T05:23:00.000Z,50.09
2022-08-09T05:23:00.000Z,50.09
2022-08-09T05:24:02.000Z,50.01
2022-08-09T05:25:04.000Z,49.97
2022-08-09T05:26:00.000Z,49.94
2022-08-09T05:27:00.000Z,50.94
2022-08-09T05:28:00.000Z,49.94
2022-08-09T05:29:00.000Z,49.84
2022-08-09T05:30:00.000Z,49.59
2022-08-09T05:31:00.000Z,49.70
2022-08-09T05:32:00.000Z,49.37
2022-08-09T05:33:00.000Z,49.02
2022-08-09T05:34:01.000Z,50.01
2022-08-09T05:35:01.000Z,48.98
2022-08-09T05:36:03.000Z,48.56
2022-08-09T05:37:03.000Z,48.31
2022-08-09T05:38:01.000Z,48.09
2022-08-09T05:39:00.000Z,48.15
2022-08-09T05:40:01.000Z,47.80
2022-08-09T05:41:00.000Z,48.14
2022-08-09T05:42:01.000Z,47.79
2022-08-09T05:43:01.000Z,46.99
2022-08-09T05:44:01.000Z,46.69
2022-08-09T05:45:01.000Z,46.82
2022-08-09T05:46:01.000Z,46.64
2022-08-09T05:47:01.000Z,46.91
2022-08-09T05:48:01.000Z,46.65
2022-08-09T05:49:00.000Z,46.54
2022-08-09T05:50:01.000Z,46.88
2022-08-09T05:51:01.000Z,46.92
2022-08-09T05:52:01.000Z,47.23
2022-08-09T05:53:01.000Z,46.94
2022-08-09T05:54:00.000Z,46.78
2022-08-09T05:55:01.000Z,46.90
2022-08-09T05:56:01.000Z,46.82
2022-08-09T05:57:01.000Z,46.97
2022-08-09T05:58:01.000Z,47.34
2022-08-09T05:59:01.000Z,47.91
2022-08-09T06:00:02.000Z,47.79
2022-08-09T06:01:01.000Z,47.19
2022-08-09T06:02:01.000Z,47.52
2022-08-09T06:03:02.000Z,47.57
2022-08-09T06:04:01.000Z,47.28
2022-08-09T06:05:01.000Z,47.37
2022-08-09T06:06:00.000Z,47.09
2022-08-09T06:07:02.000Z,47.06
2022-08-09T06:08:01.000Z,46.90
2022-08-09T06:09:01.000Z,46.94
2022-08-09T06:10:01.000Z,47.28
2022-08-09T06:11:01.000Z,46.79
2022-08-09T06:12:00.000Z,46.55
2022-08-09T06:13:00.000Z,46.48
2022-08-09T06:14:00.000Z,46.61
2022-08-09T06:15:00.000Z,46.70
2022-08-09T06:16:01.000Z,46.74
2022-08-09T06:17:00.000Z,46.77
2022-08-09T06:18:01.000Z,46.34
2022-08-09T06:19:00.000Z,46.28
2022-08-09T06:20:00.000Z,45.79
2022-08-09T06:21:02.000Z,45.94
2022-08-09T06:22:00.000Z,46.36
2022-08-09T06:23:00.000Z,46.18
2022-08-09T06:24:00.000Z,46.00
2022-08-09T06:25:00.000Z,46.03
2022-08-09T06:26:00.000Z,46.36
2022-08-09T06:27:00.000Z,45.98
2022-08-09T06:28:00.000Z,45.96
2022-08-09T06:29:00.000Z,45.75
2022-08-09T06:30:01.000Z,45.79
2022-08-09T06:31:00.000Z,45.91
2022-08-09T06:32:00.000Z,46.14
2022-08-09T06:33:00.000Z,45.80
2022-08-09T06:34:01.000Z,45.29
2022-08-09T06:35:00.000Z,45.35
2022-08-09T06:36:00.000Z,45.40
2022-08-09T06:37:00.000Z,45.22
2022-08-09T06:38:00.000Z,45.08
2022-08-09T06:39:00.000Z,45.13
2022-08-09T06:40:00.000Z,45.05
2022-08-09T06:41:00.000Z,45.08
2022-08-09T06:42:00.000Z,44.79
2022-08-09T06:43:00.000Z,44.71
2022-08-09T06:44:00.000Z,44.31
2022-08-09T06:45:00.000Z,44.29
2022-08-09T06:45:00.000Z,44.29
2022-08-09T06:46:10.000Z,44.45
2022-08-09T06:47:01.000Z,43.70
2022-08-09T06:48:00.000Z,43.44
2022-08-09T06:49:00.000Z,43.40
2022-08-09T06:50:00.000Z,43.42
2022-08-09T06:51:00.000Z,43.72
2022-08-09T06:52:00.000Z,43.88
2022-08-09T06:53:01.000Z,43.75
2022-08-09T06:54:00.000Z,43.85
2022-08-09T06:55:00.000Z,43.88
2022-08-09T06:56:02.000Z,44.15
2022-08-09T06:57:00.000Z,44.04
2022-08-09T06:58:00.000Z,42.79
2022-08-09T06:59:00.000Z,42.60
2022-08-09T06:59:00.000Z,42.60
2022-08-09T06:59:00.000Z,42.60
2022-08-09T07:00:32.000Z,42.27
2022-08-09T07:01:00.000Z,42.24
2022-08-09T07:02:00.000Z,41.97
2022-08-09T07:03:01.000Z,42.00
2022-08-09T07:04:00.000Z,41.71
2022-08-09T07:05:01.000Z,41.46
2022-08-09T07:06:02.000Z,41.29
2022-08-09T07:07:03.000Z,41.35
2022-08-09T07:08:01.000Z,41.20
2022-08-09T07:09:01.000Z,41.15
2022-08-09T07:10:01.000Z,41.00
2022-08-09T07:11:02.000Z,40.72
2022-08-09T07:12:01.000Z,40.98
2022-08-09T07:13:01.000Z,40.74
2022-08-09T07:14:01.000Z,40.53
2022-08-09T07:15:03.000Z,40.66
2022-08-09T07:15:03.000Z,40.66
2022-08-09T07:15:03.000Z,40.66
2022-08-09T07:16:31.000Z,40.77
2022-08-09T07:17:01.000Z,40.94
2022-08-09T07:18:01.000Z,40.39
2022-08-09T07:19:01.000Z,40.05
2022-08-09T07:20:01.000Z,40.15
2022-08-09T07:21:01.000Z,40.16
2022-08-09T07:22:01.000Z,40.43
2022-08-09T07:23:01.000Z,40.66
2022-08-09T07:24:01.000Z,40.05
2022-08-09T07:25:03.000Z,40.10
2022-08-09T07:26:03.000Z,39.67
2022-08-09T07:27:01.000Z,39.61
2022-08-09T07:28:01.000Z,39.15
2022-08-09T07:29:03.000Z,39.70
2022-08-09T07:30:02.000Z,39.68
2022-08-09T07:31:02.000Z,39.22
2022-08-09T07:32:03.000Z,39.37
2022-08-09T07:33:01.000Z,39.74
2022-08-09T07:34:01.000Z,39.48
2022-08-09T07:35:03.000Z,39.50
2022-08-09T07:36:00.000Z,39.48
2022-08-09T07:37:00.000Z,39.47
2022-08-09T07:38:00.000Z,39.25
2022-08-09T07:39:00.000Z,38.82
2022-08-09T07:40:01.000Z,39.54
2022-08-09T07:41:00.000Z,39.24
2022-08-09T07:42:01.000Z,39.41
2022-08-09T07:43:00.000Z,39.24
2022-08-09T07:44:00.000Z,39.26
2022-08-09T07:45:00.000Z,38.93
2022-08-09T07:46:00.000Z,38.81
2022-08-09T07:47:00.000Z,38.61
2022-08-09T07:48:00.000Z,38.33
2022-08-09T07:49:00.000Z,38.84
2022-08-09T07:50:00.000Z,38.89
2022-08-09T07:51:00.000Z,38.77
2022-08-09T07:51:00.000Z,38.77
2022-08-09T07:52:10.000Z,38.58
2022-08-09T07:53:00.000Z,38.66
2022-08-09T07:54:00.000Z,38.66
2022-08-09T07:55:01.000Z,38.71
2022-08-09T07:56:00.000Z,38.51
2022-08-09T07:57:00.000Z,38.55
2022-08-09T07:58:01.000Z,38.56
2022-08-09T07:59:00.000Z,38.59
2022-08-09T08:00:04.000Z,38.62
2022-08-09T08:01:00.000Z,38.43
2022-08-09T08:02:01.000Z,38.47
2022-08-09T08:03:01.000Z,38.28
2022-08-09T08:04:02.000Z,38.61
2022-08-09T08:05:02.000Z,38.33
2022-08-09T08:06:00.000Z,38.01
2022-08-09T08:07:03.000Z,38.10
2022-08-09T08:07:03.000Z,38.10
2022-08-09T08:07:03.000Z,38.10
2022-08-09T08:08:31.000Z,38.00
2022-08-09T08:09:05.000Z,37.87
2022-08-09T08:10:03.000Z,37.80
2022-08-09T08:11:01.000Z,38.27
2022-08-09T08:11:01.000Z,38.27
2022-08-09T08:11:01.000Z,38.27
2022-08-09T08:12:31.000Z,38.02
2022-08-09T08:13:01.000Z,38.21
2022-08-09T08:14:00.000Z,37.79
2022-08-09T08:15:01.000Z,38.21
2022-08-09T08:16:01.000Z,37.97
2022-08-09T08:17:00.000Z,38.35
2022-08-09T08:18:01.000Z,37.87
2022-08-09T08:19:00.000Z,38.13
2022-08-09T08:20:01.000Z,38.39
2022-08-09T08:21:01.000Z,37.90
2022-08-09T08:22:01.000Z,37.62
2022-08-09T08:23:03.000Z,37.38
2022-08-09T08:24:01.000Z,37.40
2022-08-09T08:25:00.000Z,37.37
2022-08-09T08:26:01.000Z,37.19
2022-08-09T08:27:01.000Z,36.81
2022-08-09T08:28:00.000Z,36.93
2022-08-09T08:29:01.000Z,37.05
2022-08-09T08:30:01.000Z,37.30
2022-08-09T08:31:01.000Z,37.42
2022-08-09T08:32:01.000Z,37.07
2022-08-09T08:33:00.000Z,36.61
2022-08-09T08:34:00.000Z,36.03
2022-08-09T08:35:02.000Z,35.95
2022-08-09T08:36:01.000Z,35.94
2022-08-09T08:37:01.000Z,35.81
2022-08-09T08:38:00.000Z,35.83
2022-08-09T08:39:02.000Z,35.85
2022-08-09T08:40:04.000Z,35.48
2022-08-09T08:41:01.000Z,35.38
2022-08-09T08:42:01.000Z,35.48
2022-08-09T08:43:03.000Z,35.53
2022-08-09T08:44:01.000Z,35.41
2022-08-09T08:45:02.000Z,35.22
2022-08-09T08:46:03.000Z,35.20
2022-08-09T08:47:02.000Z,35.03
2022-08-09T08:48:03.000Z,35.07
2022-08-09T08:49:01.000Z,35.19
2022-08-09T08:50:02.000Z,35.39
2022-08-09T08:51:01.000Z,35.31
2022-08-09T08:52:01.000Z,35.30
2022-08-09T08:53:01.000Z,35.41
2022-08-09T08:54:07.000Z,34.77
2022-08-09T08:55:01.000Z,35.24
2022-08-09T08:56:01.000Z,34.93
2022-08-09T08:57:02.000Z,34.88
2022-08-09T08:58:00.000Z,34.73
2022-08-09T08:59:04.000Z,34.30
2022-08-09T09:00:02.000Z,34.85
2022-08-09T09:01:02.000Z,34.95
2022-08-09T09:02:03.000Z,34.74
2022-08-09T09:03:02.000Z,34.83
2022-08-09T09:04:08.000Z,34.61
2022-08-09T09:05:01.000Z,34.89
2022-08-09T09:06:01.000Z,34.52
2022-08-09T09:07:06.000Z,34.83
2022-08-09T09:08:01.000Z,34.23
2022-08-09T09:09:03.000Z,33.88
2022-08-09T09:10:05.000Z,34.01
2022-08-09T09:11:03.000Z,33.71
2022-08-09T09:12:00.000Z,33.57
2022-08-09T09:13:00.000Z,33.27
2022-08-09T09:14:09.000Z,33.19
2022-08-09T09:15:02.000Z,33.38
2022-08-09T09:16:01.000Z,33.24
2022-08-09T09:17:01.000Z,32.80
2022-08-09T09:18:00.000Z,32.63
2022-08-09T09:19:05.000Z,32.89
2022-08-09T09:20:00.000Z,32.86
2022-08-09T09:21:00.000Z,32.56
2022-08-09T09:22:11.000Z,32.76
2022-08-09T09:23:00.000Z,32.19
2022-08-09T09:24:04.000Z,32.81
2022-08-09T09:25:00.000Z,32.51
2022-08-09T09:25:00.000Z,32.51
2022-08-09T09:26:12.000Z,32.26
2022-08-09T09:27:01.000Z,32.80
2022-08-09T09:28:01.000Z,32.75
2022-08-09T09:29:00.000Z,32.53
2022-08-09T09:30:09.000Z,32.43
2022-08-09T09:31:00.000Z,32.07
2022-08-09T09:32:01.000Z,31.89
2022-08-09T09:33:09.000Z,32.23
2022-08-09T09:34:09.000Z,32.07
2022-08-09T09:35:15.000Z,31.93
2022-08-09T09:36:26.000Z,31.98
2022-08-09T09:37:26.000Z,32.01
2022-08-09T09:38:42.000Z,32.00
2022-08-09T09:39:08.000Z,31.96
2022-08-09T09:40:04.000Z,31.93
2022-08-09T09:41:03.000Z,31.66
2022-08-09T09:42:03.000Z,31.70
2022-08-09T09:43:02.000Z,31.32
2022-08-09T09:44:05.000Z,31.11
2022-08-09T09:45:05.000Z,31.21
2022-08-09T09:46:03.000Z,31.29
2022-08-09T09:47:06.000Z,30.99
2022-08-09T09:48:03.000Z,30.20
2022-08-09T09:49:05.000Z,30.21
2022-08-09T09:50:03.000Z,30.37
2022-08-09T09:51:03.000Z,30.75
2022-08-09T09:52:05.000Z,30.67
2022-08-09T09:53:02.000Z,31.02
2022-08-09T09:54:09.000Z,31.34
2022-08-09T09:55:05.000Z,31.09
2022-08-09T09:56:03.000Z,30.73
2022-08-09T09:57:11.000Z,31.23
2022-08-09T09:57:11.000Z,31.23
2022-08-09T09:58:06.000Z,30.99
2022-08-09T09:59:03.000Z,30.95
2022-08-09T10:00:22.000Z,30.34
2022-08-09T10:01:02.000Z,30.15
2022-08-09T10:02:02.000Z,30.15
2022-08-09T10:03:02.000Z,29.80
2022-08-09T10:04:10.000Z,29.11
2022-08-09T10:05:08.000Z,28.53
2022-08-09T10:06:03.000Z,28.84
2022-08-09T10:07:03.000Z,29.21
2022-08-09T10:08:03.000Z,28.85
2022-08-09T10:09:03.000Z,28.77
2022-08-09T10:10:05.000Z,28.84
2022-08-09T10:11:23.000Z,28.69
2022-08-09T10:12:31.000Z,28.16
2022-08-09T10:13:03.000Z,28.34
2022-08-09T10:14:03.000Z,28.50
2022-08-09T10:15:15.000Z,28.54
2022-08-09T10:16:03.000Z,28.23
2022-08-09T10:16:03.000Z,28.23
2022-08-09T10:17:11.000Z,28.17
2022-08-09T10:18:09.000Z,28.38
2022-08-09T10:19:05.000Z,28.35
2022-08-09T10:20:10.000Z,28.17
2022-08-09T10:21:07.000Z,28.66
2022-08-09T10:22:03.000Z,28.87
2022-08-09T10:23:13.000Z,28.82
2022-08-09T10:24:04.000Z,28.83
2022-08-09T10:25:06.000Z,28.76
2022-08-09T10:26:03.000Z,28.73
2022-08-09T10:27:03.000Z,28.27
2022-08-09T10:28:03.000Z,28.06
2022-08-09T10:29:04.000Z,28.15
2022-08-09T10:29:04.000Z,28.15
2022-08-09T10:29:04.000Z,28.15
2022-08-09T10:29:04.000Z,28.15
2022-08-09T10:30:33.000Z,28.41
2022-08-09T10:30:33.000Z,28.41
2022-08-09T10:31:33.000Z,28.48
2022-08-09T10:32:33.000Z,28.47
2022-08-09T10:33:03.000Z,28.46
2022-08-09T10:34:03.000Z,28.48
2022-08-09T10:35:03.000Z,28.62
2022-08-09T10:36:05.000Z,28.60
2022-08-09T10:37:03.000Z,27.79
2022-08-09T10:38:04.000Z,28.07
2022-08-09T10:39:03.000Z,28.38
2022-08-09T10:40:05.000Z,28.13
2022-08-09T10:41:03.000Z,28.19
2022-08-09T10:42:04.000Z,28.07
2022-08-09T10:43:04.000Z,27.71
2022-08-09T10:44:03.000Z,27.71
2022-08-09T10:45:08.000Z,27.53
2022-08-09T10:46:12.000Z,27.78
2022-08-09T10:47:23.000Z,27.74
2022-08-09T10:47:23.000Z,27.74
2022-08-09T10:48:40.000Z,28.05
2022-08-09T10:49:12.000Z,27.57
2022-08-09T10:50:13.000Z,27.40
2022-08-09T10:51:19.000Z,27.04
2022-08-09T10:52:16.000Z,26.70
2022-08-09T10:53:10.000Z,26.44
2022-08-09T10:54:07.000Z,26.37
2022-08-09T10:55:12.000Z,26.03
2022-08-09T10:56:12.000Z,26.58
2022-08-09T10:57:06.000Z,26.37
2022-08-09T10:58:02.000Z,26.48
2022-08-09T10:59:37.000Z,27.11
2022-08-09T11:00:22.000Z,27.12
2022-08-09T11:01:03.000Z,27.33
2022-08-09T11:01:03.000Z,27.33
2022-08-09T11:01:03.000Z,27.33
2022-08-09T11:01:03.000Z,27.33
2022-08-09T11:02:37.000Z,27.51
2022-08-09T11:03:32.000Z,27.05
2022-08-09T11:04:12.000Z,26.85
2022-08-09T11:05:12.000Z,27.04
2022-08-09T11:06:21.000Z,26.92
2022-08-09T11:07:25.000Z,27.01
2022-08-09T11:08:12.000Z,27.09
2022-08-09T11:09:04.000Z,27.03
2022-08-09T11:10:03.000Z,27.23
2022-08-09T11:11:02.000Z,27.15
2022-08-09T11:12:26.000Z,27.06
2022-08-09T11:13:12.000Z,26.90
2022-08-09T11:14:23.000Z,26.98
2022-08-09T11:15:22.000Z,27.26
2022-08-09T11:16:12.000Z,27.23
2022-08-09T11:17:36.000Z,27.14
2022-08-09T11:18:03.000Z,26.84
2022-08-09T11:19:05.000Z,26.84
2022-08-09T11:20:08.000Z,26.75
2022-08-09T11:21:04.000Z,26.83
2022-08-09T11:22:02.000Z,26.90
2022-08-09T11:23:03.000Z,26.63
2022-08-09T11:24:03.000Z,26.53
2022-08-09T11:25:23.000Z,26.60
2022-08-09T11:26:02.000Z,26.89
2022-08-09T11:27:23.000Z,26.78
2022-08-09T11:28:15.000Z,26.53
2022-08-09T11:29:02.000Z,26.52
2022-08-09T11:30:11.000Z,26.44
2022-08-09T11:31:22.000Z,26.47
2022-08-09T11:32:02.000Z,26.81
2022-08-09T11:33:33.000Z,26.79
2022-08-09T11:34:08.000Z,26.99
2022-08-09T11:35:09.000Z,27.12
2022-08-09T11:36:03.000Z,26.89
2022-08-09T11:37:05.000Z,26.42
2022-08-09T11:38:15.000Z,26.44
2022-08-09T11:39:03.000Z,26.76
2022-08-09T11:40:05.000Z,26.80
2022-08-09T11:41:25.000Z,27.03
2022-08-09T11:42:07.000Z,26.95
2022-08-09T11:43:03.000Z,26.85
2022-08-09T11:44:03.000Z,26.67
2022-08-09T11:45:04.000Z,26.68
2022-08-09T11:46:04.000Z,26.90
2022-08-09T11:47:03.000Z,26.79
2022-08-09T11:48:25.000Z,27.02
2022-08-09T11:49:03.000Z,26.83
2022-08-09T11:50:03.000Z,27.12
2022-08-09T11:50:03.000Z,27.12
2022-08-09T11:51:04.000Z,26.92
2022-08-09T11:51:04.000Z,26.92
2022-08-09T11:51:04.000Z,26.92
2022-08-09T11:51:04.000Z,26.92
2022-08-09T11:52:54.000Z,26.90
2022-08-09T11:52:54.000Z,26.90
2022-08-09T11:53:34.000Z,26.49
2022-08-09T11:54:12.000Z,26.34
2022-08-09T11:55:13.000Z,26.48
2022-08-09T11:56:22.000Z,26.53
2022-08-09T11:57:13.000Z,26.34
2022-08-09T11:58:13.000Z,26.58
2022-08-09T11:59:04.000Z,26.57
2022-08-09T12:00:04.000Z,26.12
2022-08-09T12:01:05.000Z,26.35
2022-08-09T12:02:11.000Z,26.49
2022-08-09T12:03:02.000Z,26.73
2022-08-09T12:03:02.000Z,26.73
2022-08-09T12:04:06.000Z,26.75
2022-08-09T12:05:03.000Z,26.82
2022-08-09T12:06:13.000Z,26.41
2022-08-09T12:07:03.000Z,26.24
2022-08-09T12:08:07.000Z,26.38
2022-08-09T12:09:08.000Z,26.36
2022-08-09T12:10:03.000Z,26.38
2022-08-09T12:11:03.000Z,26.19
2022-08-09T12:12:11.000Z,26.02